Time;durP1;ratioP1;P1;durP2;ratioP2;P2;SDS_P1;SDS_P2;PMS_P1;PMS_P2;Temp;Humidity;BMP_temperature;BMP_pressure;BME280_temperature;BME280_humidity;BME280_pressure;Samples;Min_cycle;Max_cycle;Signal;HPM_P1;HPM_P2
2022/04/02 00:00:24;;;;;;;5.57;2.30;;;;;;;1.53;100.00;101475.09;5240785;28;20051;-80
2022/04/02 00:02:55;;;;;;;7.32;2.40;;;;;;;1.47;100.00;101464.03;5270184;28;20078;-80
2022/04/02 00:05:27;;;;;;;6.47;2.63;;;;;;;1.48;100.00;101465.72;5270609;28;20028;-80
2022/04/02 00:07:58;;;;;;;4.72;2.50;;;;;;;1.51;100.00;101474.34;5273523;28;20024;-80
2022/04/02 00:10:28;;;;;;;3.28;2.17;;;;;;;1.60;100.00;101477.34;5256372;28;20026;-80
2022/04/02 00:12:59;;;;;;;9.40;2.95;;;;;;;1.55;100.00;101475.81;5247886;28;20655;-80
2022/04/02 00:15:29;;;;;;;6.75;2.60;;;;;;;1.56;100.00;101466.13;5238294;28;20495;-80
2022/04/02 00:18:00;;;;;;;5.75;2.50;;;;;;;1.53;100.00;101469.78;5274544;28;20032;-80
2022/04/02 00:20:30;;;;;;;6.00;2.45;;;;;;;1.52;100.00;101470.75;5268426;28;20028;-77
2022/04/02 00:25:50;;;;;;;9.18;2.80;;;;;;;1.64;100.00;101470.94;5266040;28;20054;-75
2022/04/02 00:28:20;;;;;;;3.95;2.25;;;;;;;1.68;100.00;101456.59;5266405;28;20055;-75
2022/04/02 00:30:51;;;;;;;5.65;2.67;;;;;;;1.61;100.00;101468.47;5266734;28;20493;-75
2022/04/02 00:33:22;;;;;;;8.90;2.58;;;;;;;1.56;100.00;101466.13;5266868;28;20491;-74
2022/04/02 00:35:53;;;;;;;5.47;2.40;;;;;;;1.55;100.00;101467.91;5266100;28;20054;-75
2022/04/02 00:38:23;;;;;;;9.20;2.85;;;;;;;1.55;100.00;101472.34;5266370;28;20024;-75
2022/04/02 00:40:54;;;;;;;7.78;2.33;;;;;;;1.57;100.00;101459.03;5254209;28;20021;-75
2022/04/02 00:43:28;;;;;;;7.50;2.22;;;;;;;1.58;100.00;101458.09;5265806;28;20016;-75
2022/04/02 00:46:01;;;;;;;6.95;3.00;;;;;;;1.55;100.00;101454.66;5265691;28;20101;-75
2022/04/02 00:48:33;;;;;;;7.50;3.30;;;;;;;1.48;100.00;101463.94;5266653;28;20472;-75
2022/04/02 00:51:06;;;;;;;5.10;2.88;;;;;;;1.48;100.00;101457.81;5265954;28;20479;-75
2022/04/02 00:53:39;;;;;;;7.63;2.55;;;;;;;1.44;100.00;101459.78;5266468;28;20479;-75
2022/04/02 00:56:09;;;;;;;6.72;2.65;;;;;;;1.40;100.00;101460.91;5265841;28;20122;-75
2022/04/02 00:58:40;;;;;;;7.30;2.90;;;;;;;1.38;100.00;101464.59;5266414;28;20323;-74
2022/04/02 01:01:10;;;;;;;5.47;2.83;;;;;;;1.36;100.00;101464.69;5266127;28;20051;-75
2022/04/02 01:03:41;;;;;;;5.93;2.63;;;;;;;1.35;100.00;101455.03;5266687;28;20120;-75
2022/04/02 01:06:12;;;;;;;9.80;2.58;;;;;;;1.32;100.00;101457.03;5266218;28;20024;-75
2022/04/02 01:08:43;;;;;;;6.22;2.70;;;;;;;1.35;100.00;101456.81;5266640;28;20082;-75
2022/04/02 01:11:13;;;;;;;5.18;2.90;;;;;;;1.29;100.00;101450.97;5266428;28;20028;-75
2022/04/02 01:13:44;;;;;;;3.55;2.10;;;;;;;1.22;100.00;101459.38;5266158;28;20032;-75
2022/04/02 01:16:15;;;;;;;8.63;2.70;;;;;;;1.17;100.00;101464.06;5253873;28;20078;-75
2022/04/02 01:18:45;;;;;;;5.97;2.17;;;;;;;1.12;100.00;101459.06;5266234;28;20032;-75
2022/04/02 01:21:16;;;;;;;8.05;3.60;;;;;;;1.10;100.00;101458.28;5266116;28;20548;-75
2022/04/02 01:23:46;;;;;;;6.07;2.75;;;;;;;1.11;100.00;101460.00;5266302;28;20059;-75
2022/04/02 01:26:18;;;;;;;7.35;2.95;;;;;;;1.15;100.00;101460.66;5265617;28;20027;-75
2022/04/02 01:31:36;;;;;;;5.65;2.47;;;;;;;1.11;100.00;101464.44;5265977;28;20082;-75
2022/04/02 01:34:07;;;;;;;7.72;3.22;;;;;;;1.06;100.00;101466.50;5266047;28;20028;-75
2022/04/02 01:36:37;;;;;;;5.03;2.50;;;;;;;0.99;100.00;101466.00;5265787;28;20028;-75
2022/04/02 01:39:08;;;;;;;10.93;3.10;;;;;;;0.92;100.00;101462.03;5249812;28;20489;-75
2022/04/02 01:41:39;;;;;;;9.60;2.55;;;;;;;0.90;100.00;101477.09;5256520;28;20027;-75
2022/04/02 01:44:09;;;;;;;4.78;2.55;;;;;;;0.89;100.00;101475.41;5269500;28;20028;-75
2022/04/02 01:46:40;;;;;;;6.70;2.55;;;;;;;0.84;100.00;101475.66;5270230;28;20435;-75
2022/04/02 01:49:11;;;;;;;8.07;2.72;;;;;;;0.75;100.00;101484.97;5252094;28;20030;-75
2022/04/02 01:51:42;;;;;;;5.82;2.85;;;;;;;0.71;100.00;101478.16;5270365;28;20023;-75
2022/04/02 01:54:12;;;;;;;12.75;3.25;;;;;;;0.75;100.00;101478.81;5269519;28;20707;-76
2022/04/02 01:56:43;;;;;;;8.10;3.03;;;;;;;0.80;100.00;101478.56;5270269;28;20032;-75
2022/04/02 01:59:13;;;;;;;9.27;2.83;;;;;;;0.84;100.00;101482.72;5269864;28;20075;-75
2022/04/02 02:01:44;;;;;;;7.88;2.50;;;;;;;0.81;100.00;101483.78;5269583;28;20027;-75
2022/04/02 02:04:15;;;;;;;4.63;2.45;;;;;;;0.76;100.00;101476.13;5269158;28;20054;-76
2022/04/02 02:06:46;;;;;;;10.77;2.50;;;;;;;0.71;100.00;101482.59;5269782;28;20062;-75
2022/04/02 02:09:17;;;;;;;5.88;2.50;;;;;;;0.65;100.00;101489.09;5269718;28;20505;-75
2022/04/02 02:11:48;;;;;;;9.50;2.75;;;;;;;0.60;100.00;101490.25;5269531;28;20024;-75
2022/04/02 02:14:18;;;;;;;5.28;2.25;;;;;;;0.59;100.00;101484.13;5263923;28;20490;-75
2022/04/02 02:16:49;;;;;;;5.32;2.72;;;;;;;0.54;100.00;101486.19;5268723;28;20035;-75
2022/04/02 02:19:20;;;;;;;8.50;2.65;;;;;;;0.57;100.00;101475.47;5269625;28;20128;-76
2022/04/02 02:21:51;;;;;;;5.57;2.28;;;;;;;0.65;100.00;101477.66;5271198;28;20051;-75
2022/04/02 02:24:22;;;;;;;7.07;2.67;;;;;;;0.63;100.00;101471.63;5251206;28;20113;-76
2022/04/02 02:26:53;;;;;;;6.57;2.83;;;;;;;0.60;100.00;101482.34;5269392;28;20085;-76
2022/04/02 02:29:23;;;;;;;5.68;2.42;;;;;;;0.55;100.00;101492.31;5269561;28;20075;-76
2022/04/02 02:31:54;;;;;;;6.55;2.58;;;;;;;0.51;100.00;101489.84;5269213;28;20030;-76
2022/04/02 02:37:13;;;;;;;7.60;2.55;;;;;;;0.52;100.00;101488.91;5269179;28;20028;-76
2022/04/02 02:39:44;;;;;;;8.00;2.45;;;;;;;0.45;100.00;101478.78;5266648;28;20372;-77
2022/04/02 02:42:14;;;;;;;8.35;3.72;;;;;;;0.39;100.00;101487.88;5257971;28;20040;-77
2022/04/02 02:44:45;;;;;;;4.63;2.40;;;;;;;0.38;100.00;101486.19;5268331;28;20032;-76
2022/04/02 02:47:15;;;;;;;6.45;2.42;;;;;;;0.35;100.00;101481.09;5269647;28;20043;-77
2022/04/02 02:49:46;;;;;;;7.22;3.25;;;;;;;0.35;100.00;101488.13;5269899;28;20376;-75
2022/04/02 02:52:16;;;;;;;8.05;2.50;;;;;;;0.36;100.00;101493.34;5268800;28;20055;-76
2022/04/02 02:54:47;;;;;;;9.52;2.03;;;;;;;0.35;100.00;101490.78;5268288;28;20034;-76
2022/04/02 02:57:17;;;;;;;6.20;2.50;;;;;;;0.32;100.00;101494.44;5269251;28;20103;-76
2022/04/02 02:59:47;;;;;;;6.05;2.50;;;;;;;0.28;100.00;101502.63;5268928;28;20024;-75
2022/04/02 03:02:18;;;;;;;8.75;2.70;;;;;;;0.30;100.00;101508.66;5268361;28;20012;-76
2022/04/02 03:04:48;;;;;;;3.92;2.33;;;;;;;0.24;100.00;101505.41;5268373;28;20463;-76
2022/04/02 03:07:19;;;;;;;9.52;2.38;;;;;;;0.19;100.00;101503.97;5250814;28;20483;-76
2022/04/02 03:09:49;;;;;;;8.15;2.58;;;;;;;0.24;100.00;101512.47;5269161;28;20020;-75
2022/04/02 03:12:20;;;;;;;5.78;2.38;;;;;;;0.21;100.00;101492.41;5268587;28;20031;-75
2022/04/02 03:14:50;;;;;;;5.25;2.35;;;;;;;0.20;100.00;101495.09;5258402;28;20471;-76
2022/04/02 03:17:21;;;;;;;12.25;2.38;;;;;;;0.18;100.00;101486.44;5266437;28;20614;-76
2022/04/02 03:19:52;;;;;;;4.97;2.40;;;;;;;0.17;100.00;101492.66;5268879;28;20054;-76
2022/04/02 03:22:22;;;;;;;6.93;2.85;;;;;;;0.15;100.00;101490.13;5268315;28;20024;-76
2022/04/02 03:24:54;;;;;;;8.68;3.08;;;;;;;0.22;100.00;101501.19;5267942;28;20020;-76
2022/04/02 03:27:24;;;;;;;5.75;2.38;;;;;;;0.26;100.00;101505.34;5268113;28;20070;-76
2022/04/02 03:29:55;;;;;;;7.28;2.55;;;;;;;0.27;100.00;101504.41;5268337;28;20035;-76
2022/04/02 03:32:25;;;;;;;6.63;2.45;;;;;;;0.28;100.00;101500.84;5250128;28;20067;-76
2022/04/02 03:34:57;;;;;;;5.13;2.40;;;;;;;0.28;100.00;101505.25;5267699;28;20051;-76
2022/04/02 03:37:28;;;;;;;4.70;2.33;;;;;;;0.29;100.00;101507.81;5267876;28;20019;-76
2022/04/02 03:39:59;;;;;;;7.07;2.85;;;;;;;0.32;100.00;101507.66;5263321;28;20027;-76
2022/04/02 03:42:29;;;;;;;9.50;2.47;;;;;;;0.30;100.00;101498.94;5258904;28;20493;-75
2022/04/02 03:45:00;;;;;;;8.10;2.70;;;;;;;0.30;100.00;101506.00;5266777;28;20032;-75
2022/04/02 03:47:31;;;;;;;7.15;2.53;;;;;;;0.30;100.00;101506.88;5266808;28;20024;-76
2022/04/02 03:50:03;;;;;;;7.53;2.58;;;;;;;0.30;100.00;101504.22;5266634;28;20440;-76
2022/04/02 03:52:33;;;;;;;4.95;2.40;;;;;;;0.32;100.00;101502.38;5266802;28;20031;-76
2022/04/02 03:55:05;;;;;;;5.82;2.28;;;;;;;0.41;100.00;101507.16;5266535;28;20012;-76
2022/04/02 03:57:36;;;;;;;4.88;2.20;;;;;;;0.43;100.00;101504.41;5266663;28;20078;-76
2022/04/02 04:00:08;;;;;;;9.32;3.20;;;;;;;0.40;100.00;101509.84;5266620;28;20047;-76
2022/04/02 04:02:40;;;;;;;4.50;2.25;;;;;;;0.42;100.00;101510.63;5265461;28;20028;-76
2022/04/02 04:05:10;;;;;;;10.00;3.50;;;;;;;0.44;100.00;101508.75;5265946;28;20415;-76
2022/04/02 04:07:41;;;;;;;8.93;3.05;;;;;;;0.43;100.00;101517.63;5266759;28;20024;-77
2022/04/02 04:10:12;;;;;;;7.00;2.80;;;;;;;0.43;100.00;101512.34;5267182;28;20054;-75
2022/04/02 04:12:42;;;;;;;5.63;2.50;;;;;;;0.44;100.00;101525.44;5266327;28;20028;-76
2022/04/02 04:15:13;;;;;;;6.07;2.20;;;;;;;0.43;100.00;101528.19;5252079;28;20021;-76
2022/04/02 04:17:43;;;;;;;7.60;2.00;;;;;;;0.41;100.00;101530.06;5248472;28;20028;-76
2022/04/02 04:20:13;;;;;;;6.18;2.78;;;;;;;0.39;100.00;101524.84;5266227;28;20024;-76
2022/04/02 04:22:44;;;;;;;6.95;2.47;;;;;;;0.37;100.00;101526.72;5266381;28;20101;-77
2022/04/02 04:25:14;;;;;;;6.20;2.60;;;;;;;0.35;100.00;101525.09;5266322;28;20458;-77
2022/04/02 04:27:45;;;;;;;8.27;2.53;;;;;;;0.33;100.00;101527.81;5265948;28;20036;-77
2022/04/02 04:30:15;;;;;;;6.03;2.10;;;;;;;0.30;100.00;101532.41;5266163;28;20114;-76
2022/04/02 04:32:46;;;;;;;4.57;2.50;;;;;;;0.26;100.00;101534.38;5266498;28;20121;-76
2022/04/02 04:35:17;;;;;;;18.08;2.83;;;;;;;0.21;100.00;101539.91;5265662;28;20020;-76
2022/04/02 04:37:47;;;;;;;7.97;2.53;;;;;;;0.18;100.00;101537.41;5266502;28;20536;-76
2022/04/02 04:40:18;;;;;;;7.50;2.45;;;;;;;0.18;100.00;101544.50;5258893;28;20483;-76
2022/04/02 04:42:49;;;;;;;7.65;2.50;;;;;;;0.16;100.00;101552.50;5259127;28;20509;-77
2022/04/02 04:45:19;;;;;;;6.63;2.45;;;;;;;0.15;100.00;101549.91;5215216;28;1092331;-76
2022/04/02 04:47:50;;;;;;;6.60;2.65;;;;;;;0.13;100.00;101554.44;5268185;28;20028;-77
2022/04/02 04:50:20;;;;;;;7.28;3.30;;;;;;;0.09;100.00;101555.53;5267123;28;20036;-76
2022/04/02 04:52:51;;;;;;;5.88;2.50;;;;;;;0.04;100.00;101554.91;5267547;28;20055;-78
2022/04/02 04:55:21;;;;;;;11.38;3.25;;;;;;;0.04;100.00;101566.31;5268571;28;20024;-78
2022/04/02 04:57:52;;;;;;;4.75;2.38;;;;;;;0.08;100.00;101567.03;5267737;28;20020;-78
2022/04/02 05:00:23;;;;;;;7.28;2.60;;;;;;;0.08;100.00;101574.94;5268262;28;20032;-75
2022/04/02 05:02:53;;;;;;;10.27;2.85;;;;;;;0.07;100.00;101570.59;5266409;28;20540;-75
2022/04/02 05:05:25;;;;;;;9.20;3.13;;;;;;;0.06;100.00;101582.94;5266367;28;20350;-76
2022/04/02 05:07:55;;;;;;;8.05;2.65;;;;;;;0.08;100.00;101582.84;5266313;28;20024;-74
2022/04/02 05:10:27;;;;;;;8.25;2.80;;;;;;;0.10;100.00;101588.91;5266525;28;20028;-74
2022/04/02 05:12:57;;;;;;;6.40;2.40;;;;;;;0.09;100.00;101593.31;5266002;28;20020;-74
2022/04/02 05:15:28;;;;;;;5.07;2.35;;;;;;;0.10;100.00;101591.53;5252705;28;20027;-74
2022/04/02 05:17:58;;;;;;;5.35;2.10;;;;;;;0.23;100.00;101582.88;5267387;28;20110;-77
2022/04/02 05:20:29;;;;;;;6.82;2.60;;;;;;;0.20;100.00;101592.75;5245827;28;20081;-77
2022/04/02 05:23:00;;;;;;;6.47;2.65;;;;;;;0.17;100.00;101593.78;5240453;28;20394;-77
2022/04/02 05:25:30;;;;;;;8.85;2.70;;;;;;;0.17;100.00;101591.16;5265582;28;20491;-75
2022/04/02 05:28:04;;;;;;;5.13;2.38;;;;;;;0.25;100.00;101596.88;5264841;28;20490;-74
2022/04/02 05:30:37;;;;;;;8.23;2.33;;;;;;;0.24;100.00;101604.84;5264680;28;20024;-74
2022/04/02 05:33:08;;;;;;;5.82;1.85;;;;;;;0.22;100.00;101599.66;5265105;28;20059;-75
2022/04/02 05:35:38;;;;;;;3.83;2.00;;;;;;;0.25;100.00;101615.34;5264431;28;20044;-74
2022/04/02 05:38:09;;;;;;;5.95;2.40;;;;;;;0.25;100.00;101622.38;5264623;28;20020;-74
2022/04/02 05:40:39;;;;;;;7.10;2.30;;;;;;;0.20;100.00;101629.69;5254182;28;20023;-74
2022/04/02 05:43:10;;;;;;;5.78;2.80;;;;;;;0.25;100.00;101627.66;5262252;28;20016;-77
2022/04/02 05:45:40;;;;;;;5.45;2.45;;;;;;;0.27;100.00;101635.53;5264800;28;20570;-76
2022/04/02 05:48:11;;;;;;;6.00;2.90;;;;;;;0.26;100.00;101637.31;5264527;28;20081;-76
2022/04/02 05:50:42;;;;;;;4.32;2.10;;;;;;;0.24;100.00;101649.72;5246513;28;20039;-74
2022/04/02 05:53:12;;;;;;;12.23;2.83;;;;;;;0.25;100.00;101643.50;5264449;28;20767;-74
2022/04/02 05:55:43;;;;;;;6.85;2.80;;;;;;;0.29;100.00;101654.75;5264139;28;20020;-75
2022/04/02 05:58:14;;;;;;;4.57;2.08;;;;;;;0.27;100.00;101654.00;5246563;28;20111;-74
2022/04/02 06:00:45;;;;;;;13.30;3.40;;;;;;;0.28;100.00;101653.06;5264329;28;20629;-74
2022/04/02 06:03:16;;;;;;;5.22;2.20;;;;;;;0.28;100.00;101671.53;5264618;28;20065;-76
2022/04/02 06:05:48;;;;;;;5.05;2.65;;;;;;;0.24;100.00;101669.03;5263750;28;20024;-75
2022/04/02 06:08:19;;;;;;;5.82;2.60;;;;;;;0.33;100.00;101658.94;5264317;28;20028;-75
2022/04/02 06:10:49;;;;;;;8.02;2.90;;;;;;;0.39;100.00;101661.25;5264473;28;20632;-75
2022/04/02 06:13:20;;;;;;;9.27;2.83;;;;;;;0.42;100.00;101667.25;5264480;28;20032;-75
2022/04/02 06:15:50;;;;;;;7.30;2.92;;;;;;;0.41;100.00;101668.19;5251593;28;20050;-75
2022/04/02 06:18:21;;;;;;;4.38;2.10;;;;;;;0.59;100.00;101663.69;5264237;28;20046;-76
2022/04/02 06:20:52;;;;;;;5.40;3.00;;;;;;;0.64;100.00;101660.81;5259993;28;20027;-78
2022/04/02 06:23:22;;;;;;;5.35;2.88;;;;;;;0.78;100.00;101663.56;5245111;28;20028;-79
2022/04/02 06:25:53;;;;;;;6.97;2.65;;;;;;;0.84;100.00;101670.28;5236908;28;20123;-78
2022/04/02 06:28:23;;;;;;;4.85;2.30;;;;;;;0.89;100.00;101669.09;5221696;28;20028;-78
2022/04/02 06:30:54;;;;;;;6.60;2.50;;;;;;;0.98;100.00;101670.41;5252688;28;20059;-76
2022/04/02 06:33:24;;;;;;;5.78;2.85;;;;;;;1.13;100.00;101679.25;5250111;28;20081;-76
2022/04/02 06:35:55;;;;;;;7.68;2.10;;;;;;;1.16;100.00;101682.59;5267688;28;20060;-73
2022/04/02 06:38:26;;;;;;;4.70;2.50;;;;;;;1.36;100.00;101684.13;5249800;28;20089;-76
2022/04/02 06:40:56;;;;;;;6.13;2.28;;;;;;;1.56;100.00;101688.28;5237202;28;20037;-77
2022/04/02 06:43:27;;;;;;;6.60;2.25;;;;;;;1.66;100.00;101694.75;5266637;28;20026;-76
2022/04/02 06:45:58;;;;;;;5.65;2.38;;;;;;;1.86;100.00;101692.72;5248934;28;20465;-77
2022/04/02 06:48:28;;;;;;;6.78;2.42;;;;;;;1.90;100.00;101703.03;5267852;28;20024;-76
2022/04/02 06:51:00;;;;;;;10.23;2.75;;;;;;;1.96;100.00;101696.56;5249720;28;20032;-77
2022/04/02 06:53:31;;;;;;;5.40;2.28;;;;;;;2.11;100.00;101705.38;5268088;28;20016;-77
2022/04/02 06:56:01;;;;;;;7.10;2.97;;;;;;;2.33;100.00;101704.00;5268754;28;20047;-76
2022/04/02 06:58:34;;;;;;;5.90;2.30;;;;;;;2.58;100.00;101710.47;5269370;28;20035;-77
2022/04/02 07:01:05;;;;;;;4.88;2.30;;;;;;;2.69;100.00;101710.66;5251246;28;20107;-77
2022/04/02 07:03:38;;;;;;;4.68;2.40;;;;;;;2.97;100.00;101722.22;5267871;28;20114;-77
2022/04/02 07:06:09;;;;;;;8.13;2.53;;;;;;;3.20;100.00;101713.63;5266995;28;20024;-77
2022/04/02 07:08:39;;;;;;;7.90;2.60;;;;;;;3.32;100.00;101714.69;5233368;28;20016;-76
2022/04/02 07:11:10;;;;;;;7.57;2.55;;;;;;;3.61;100.00;101718.94;5267808;28;20111;-77
2022/04/02 07:13:40;;;;;;;4.55;2.75;;;;;;;3.94;100.00;101725.63;5267647;28;20054;-77
2022/04/02 07:16:11;;;;;;;6.82;2.35;;;;;;;4.13;100.00;101734.06;5254495;28;20660;-76
2022/04/02 07:18:44;;;;;;;5.32;2.50;;;;;;;4.44;100.00;101733.81;5266708;28;20197;-77
2022/04/02 07:21:16;;;;;;;4.53;2.35;;;;;;;4.69;100.00;101733.81;5266922;28;20024;-77
2022/04/02 07:23:47;;;;;;;4.65;2.15;;;;;;;4.81;100.00;101735.59;5267201;28;20028;-77
2022/04/02 07:26:19;;;;;;;4.03;2.03;;;;;;;4.89;100.00;101733.25;5266499;28;20031;-76
2022/04/02 07:28:51;;;;;;;3.20;2.00;;;;;;;4.87;100.00;101727.22;5248802;28;20027;-77
2022/04/02 07:31:22;;;;;;;9.20;2.30;;;;;;;4.85;100.00;101736.25;5267037;28;20032;-78
2022/04/02 07:33:53;;;;;;;5.93;2.13;;;;;;;4.86;100.00;101736.13;5260245;28;20058;-76
2022/04/02 07:36:42;;;;;;;3.70;2.38;;;;;;;5.24;100.00;101747.69;5258900;28;20091;-75
2022/04/02 07:39:16;;;;;;;3.38;2.22;;;;;;;5.41;100.00;101741.97;5266554;28;20433;-74
2022/04/02 07:42:02;;;;;;;3.08;2.00;;;;;;;5.62;100.00;101745.78;5253080;28;20474;-76
2022/04/02 07:44:48;;;;;;;;;;;;;;;5.66;100.00;101759.69;5265996;28;20032;-75
2022/04/02 07:47:23;;;;;;;7.40;2.42;;;;;;;6.15;100.00;101759.59;5266543;28;19912;-75
2022/04/02 07:50:00;;;;;;;5.78;2.10;;;;;;;6.10;100.00;101764.41;5266199;28;20024;-76
2022/04/02 07:52:31;;;;;;;6.18;2.13;;;;;;;6.27;100.00;101760.47;5266291;28;20103;-76
2022/04/02 07:55:06;;;;;;;8.10;2.63;;;;;;;6.77;99.06;101770.91;5265640;28;20493;-76
2022/04/02 07:57:38;;;;;;;5.57;2.53;;;;;;;7.09;95.61;101771.06;5266276;28;20116;-76
2022/04/02 08:00:12;;;;;;;10.55;2.42;;;;;;;7.48;88.45;101772.34;5265711;28;20679;-75
2022/04/02 08:02:46;;;;;;;5.65;2.33;;;;;;;7.48;82.59;101778.56;5266686;28;20028;-77
2022/04/02 08:05:18;;;;;;;3.53;1.80;;;;;;;7.23;77.34;101779.69;5266326;28;20078;-77
2022/04/02 08:07:52;;;;;;;3.75;2.10;;;;;;;7.70;82.61;101779.50;5266471;28;20024;-77
2022/04/02 08:10:24;;;;;;;3.78;1.77;;;;;;;8.01;81.17;101783.16;5266040;28;20483;-77
2022/04/02 08:12:57;;;;;;;5.68;2.50;;;;;;;8.29;75.48;101779.91;5266007;28;20031;-76
2022/04/02 08:15:27;;;;;;;3.83;2.25;;;;;;;8.13;77.51;101778.63;5253471;28;20538;-76
2022/04/02 08:18:01;;;;;;;4.93;2.22;;;;;;;8.13;72.04;101795.50;5265793;28;20064;-76
2022/04/02 08:20:32;;;;;;;9.75;1.95;;;;;;;8.16;69.08;101789.06;5265462;28;20043;-76
2022/04/02 08:23:03;;;;;;;5.68;2.10;;;;;;;8.16;72.33;101795.25;5265633;28;20035;-77
2022/04/02 08:25:35;;;;;;;4.43;2.15;;;;;;;8.38;71.55;101791.66;5265094;28;20044;-77
2022/04/02 08:28:31;;;;;;;4.38;2.10;;;;;;;8.71;69.94;101800.50;5247602;28;20028;-77
2022/04/02 08:31:04;;;;;;;;;;;;;;;8.46;66.14;101796.38;5265811;28;20024;-76
2022/04/02 08:33:49;;;;;;;5.10;1.80;;;;;;;7.99;68.30;101796.66;5265266;28;19915;-76
2022/04/02 08:36:42;;;;;;;3.65;2.15;;;;;;;7.85;67.72;101796.94;5246702;28;20020;-75
2022/04/02 08:39:21;;;;;;;4.30;1.92;;;;;;;7.81;65.76;101797.31;5265707;28;20112;-76
2022/04/02 08:42:12;;;;;;;2.17;1.70;;;;;;;7.10;69.13;101808.28;5249533;28;20046;-76
2022/04/02 08:45:04;;;;;;;4.75;2.00;;;;;;;7.05;71.46;101804.28;5264577;28;20036;-76
2022/04/02 08:47:59;;;;;;;4.72;2.17;;;;;;;7.49;77.92;101814.97;5265267;28;20024;-76
2022/04/02 08:50:33;;;;;;;4.50;2.00;;;;;;;6.87;73.81;101810.06;5265057;28;20034;-76
2022/04/02 08:53:20;;;;;;;5.65;1.77;;;;;;;6.33;74.25;101812.50;5265290;28;20024;-78
2022/04/02 08:56:01;;;;;;;6.72;2.20;;;;;;;6.21;73.79;101823.06;5265842;28;20375;-76
2022/04/02 08:59:00;;;;;;;4.15;2.20;;;;;;;6.63;78.24;101820.00;5264783;28;20043;-76
2022/04/02 09:01:40;;;;;;;6.65;2.33;;;;;;;6.65;80.11;101824.22;5250502;28;20105;-76
2022/04/02 09:04:56;;;;;;;8.00;2.63;;;;;;;6.71;79.22;101836.22;5242797;28;20020;-74
2022/04/02 09:07:51;;;;;;;5.00;1.98;;;;;;;6.62;84.72;101824.44;5244767;28;20028;-75
2022/04/02 09:10:42;;;;;;;4.75;2.50;;;;;;;6.49;86.92;101834.34;5258072;28;20028;-76
2022/04/02 09:13:50;;;;;;;5.10;2.40;;;;;;;6.67;87.79;101838.28;5264979;28;20419;-77
2022/04/02 09:16:36;;;;;;;6.85;2.28;;;;;;;6.42;95.29;101839.28;5242885;28;20596;-74
2022/04/02 09:19:25;;;;;;;5.18;2.10;;;;;;;6.22;90.84;101842.56;5264819;28;20028;-74
2022/04/02 09:21:57;;;;;;;3.88;2.30;;;;;;;5.69;97.61;101848.19;5264903;28;20097;-75
2022/04/02 09:24:44;;;;;;;6.80;2.60;;;;;;;5.53;100.00;101844.06;5264334;28;20029;-75
2022/04/02 09:27:57;;;;;;;5.97;2.90;;;;;;;5.64;100.00;101855.66;5264710;28;20387;-75
2022/04/02 09:30:46;;;;;;;7.40;2.83;;;;;;;5.71;100.00;101848.91;5264300;28;20020;-74
2022/04/02 09:33:51;;;;;;;8.07;2.47;;;;;;;5.62;100.00;101838.06;5264820;28;20129;-75
2022/04/02 09:36:59;;;;;;;6.13;2.85;;;;;;;5.35;100.00;101848.88;5263981;28;20047;-74
2022/04/02 09:40:05;;;;;;;6.03;2.65;;;;;;;5.07;100.00;101853.47;5263528;28;20031;-75
2022/04/02 09:42:56;;;;;;;6.83;3.40;;;;;;;4.95;100.00;101851.66;5256492;28;20028;-74
2022/04/02 09:45:35;;;;;;;8.23;3.22;;;;;;;4.82;100.00;101856.97;5263912;28;20032;-76
2022/04/02 09:48:20;;;;;;;7.38;3.53;;;;;;;4.85;100.00;101862.06;5246550;28;20052;-75
2022/04/02 09:50:56;;;;;;;5.63;2.73;;;;;;;4.80;100.00;101864.19;5264124;28;20059;-75
2022/04/02 09:53:29;;;;;;;6.88;2.85;;;;;;;4.79;100.00;101866.94;5264438;28;20426;-75
2022/04/02 09:56:01;;;;;;;9.35;3.13;;;;;;;4.70;100.00;101859.59;5246044;28;20016;-75
2022/04/02 09:58:43;;;;;;;6.28;2.85;;;;;;;4.75;100.00;101855.66;5264473;28;20115;-75
2022/04/02 10:01:39;;;;;;;6.82;3.08;;;;;;;4.95;100.00;101867.59;5267174;28;20020;-75
2022/04/02 10:04:37;;;;;;;9.82;3.42;;;;;;;4.91;100.00;101874.94;5267799;28;20422;-75
2022/04/02 10:07:29;;;;;;;7.43;3.15;;;;;;;5.00;100.00;101864.63;5267921;28;20465;-75
2022/04/02 10:10:02;;;;;;;7.15;3.05;;;;;;;5.19;100.00;101862.41;5268114;28;20035;-73
2022/04/02 10:12:36;;;;;;;6.72;2.50;;;;;;;5.05;100.00;101867.81;5268155;28;20034;-75
2022/04/02 10:15:08;;;;;;;9.77;4.20;;;;;;;5.02;100.00;101865.34;5256093;28;20039;-75
2022/04/02 10:17:39;;;;;;;6.47;2.47;;;;;;;5.02;100.00;101860.91;5254395;28;20024;-75
2022/04/02 10:20:13;;;;;;;7.03;3.28;;;;;;;5.02;100.00;101868.91;5267558;28;20016;-75
2022/04/02 10:22:45;;;;;;;11.13;3.25;;;;;;;5.20;100.00;101867.59;5269245;28;20131;-77
2022/04/02 10:25:16;;;;;;;12.23;4.47;;;;;;;5.20;100.00;101877.41;5256095;28;20016;-78
2022/04/02 10:27:47;;;;;;;5.07;2.50;;;;;;;5.15;100.00;101869.72;5277023;28;20024;-78
2022/04/02 10:30:19;;;;;;;6.20;3.08;;;;;;;5.15;100.00;101876.88;5241261;28;20051;-78
2022/04/02 10:32:57;;;;;;;6.25;2.72;;;;;;;5.64;100.00;101870.78;5257551;28;20020;-78
2022/04/02 10:35:28;;;;;;;7.80;3.00;;;;;;;6.13;100.00;101868.13;5274531;28;20047;-78
2022/04/02 10:38:36;;;;;;;9.63;2.78;;;;;;;6.58;100.00;101864.81;5255712;28;20024;-77
2022/04/02 10:41:11;;;;;;;5.22;2.88;;;;;;;7.14;100.00;101862.28;5255436;28;20024;-78
2022/04/02 10:43:59;;;;;;;6.55;2.78;;;;;;;7.11;90.17;101865.19;5269976;28;20098;-78
2022/04/02 10:46:32;;;;;;;6.75;2.80;;;;;;;6.58;85.83;101862.16;5268877;28;20134;-78
2022/04/02 10:51:54;;;;;;;9.15;3.15;;;;;;;6.78;95.62;101865.94;5269219;28;20066;-78
2022/04/02 10:54:48;;;;;;;7.63;2.83;;;;;;;7.20;84.68;101859.13;5251048;28;20163;-78
2022/04/02 10:57:18;;;;;;;6.28;3.75;;;;;;;7.25;84.50;101857.78;5235060;28;20016;-78
2022/04/02 10:59:53;;;;;;;6.70;3.00;;;;;;;7.31;84.52;101853.78;5268050;28;20030;-75
2022/04/02 11:02:36;;;;;;;4.03;2.40;;;;;;;7.13;85.08;101853.44;5267706;28;20061;-76
2022/04/02 11:05:09;;;;;;;5.18;2.67;;;;;;;6.99;76.93;101850.97;5266810;28;20664;-76
2022/04/02 11:07:45;;;;;;;4.60;2.50;;;;;;;7.11;77.66;101843.81;5267284;28;20157;-76
2022/04/02 11:10:17;;;;;;;4.90;2.63;;;;;;;7.27;77.58;101845.16;5267120;28;20054;-76
2022/04/02 11:12:59;;;;;;;5.60;2.75;;;;;;;8.00;80.67;101838.44;5267178;28;20071;-77
2022/04/02 11:15:31;;;;;;;6.13;2.78;;;;;;;8.15;75.77;101839.00;5253677;28;20020;-76
2022/04/02 11:18:02;;;;;;;4.65;2.85;;;;;;;8.14;77.82;101844.47;5266773;28;20020;-76
2022/04/02 11:20:34;;;;;;;7.43;2.88;;;;;;;7.33;78.00;101843.00;5266620;28;20036;-76
2022/04/02 11:23:19;;;;;;;4.53;2.63;;;;;;;6.50;74.43;101846.72;5267094;28;20020;-76
2022/04/02 11:25:54;;;;;;;7.38;2.92;;;;;;;5.85;80.01;101849.72;5266310;28;20035;-76
2022/04/02 11:28:25;;;;;;;5.90;2.58;;;;;;;5.53;86.28;101862.72;5266478;28;20031;-76
2022/04/02 11:31:23;;;;;;;6.00;2.97;;;;;;;5.59;91.58;101863.13;5266324;28;20035;-77
2022/04/02 11:33:53;;;;;;;6.85;3.17;;;;;;;5.57;92.16;101859.72;5268381;28;20035;-79
2022/04/02 11:36:53;;;;;;;10.15;3.05;;;;;;;6.00;90.16;101859.31;5269351;28;20024;-78
2022/04/02 11:39:49;;;;;;;7.38;3.40;;;;;;;7.14;100.00;101855.13;5242343;28;20119;-76
2022/04/02 11:42:25;;;;;;;8.77;3.05;;;;;;;7.77;87.84;101853.66;5245481;28;20116;-76
2022/04/02 11:44:56;;;;;;;6.50;3.03;;;;;;;7.96;85.03;101846.81;5265868;28;20498;-75
2022/04/02 11:47:30;;;;;;;5.85;3.03;;;;;;;8.41;83.92;101858.25;5265934;28;20024;-77
2022/04/02 11:50:06;;;;;;;5.68;3.00;;;;;;;8.53;81.43;101856.38;5266654;28;20035;-77
2022/04/02 11:52:49;;;;;;;4.57;2.40;;;;;;;8.39;73.14;101860.22;5266283;28;20141;-78
2022/04/02 11:55:21;;;;;;;8.05;2.55;;;;;;;8.33;71.12;101855.34;5266241;28;20024;-77
2022/04/02 11:58:11;;;;;;;5.25;2.78;;;;;;;7.80;69.55;101844.56;5266193;28;20030;-76
2022/04/02 12:00:43;;;;;;;6.38;2.40;;;;;;;7.26;68.77;101855.97;5265927;28;20048;-77
2022/04/02 12:03:31;;;;;;;7.88;2.63;;;;;;;6.96;72.62;101852.06;5262810;28;20209;-77
2022/04/02 12:06:32;;;;;;;4.38;2.40;;;;;;;6.99;74.10;101857.16;5253643;28;20020;-78
2022/04/02 12:09:22;;;;;;;4.05;2.50;;;;;;;7.23;77.85;101856.22;5266278;28;20335;-77
2022/04/02 12:11:55;;;;;;;7.30;2.67;;;;;;;6.89;72.42;101866.84;5265813;28;20065;-77